createdAt,value
2022-12-11T00:00:05.411Z,88.00
2022-12-11T00:02:31.860Z,89.95
2022-12-11T00:04:58.377Z,94.07
2022-12-11T00:07:25.488Z,95.95
2022-12-11T00:09:52.371Z,101.78
2022-12-11T00:12:19.151Z,108.15
2022-12-11T00:14:45.599Z,107.93
2022-12-11T00:17:12.300Z,106.65
2022-12-11T00:19:38.938Z,116.25
2022-12-11T00:22:05.297Z,116.20
2022-12-11T00:24:31.920Z,113.63
2022-12-11T00:26:58.967Z,117.43
2022-12-11T00:29:25.513Z,108.00
2022-12-11T00:31:51.938Z,102.90
2022-12-11T00:34:18.363Z,115.13
2022-12-11T00:36:44.855Z,99.72
2022-12-11T00:39:11.236Z,111.25
2022-12-11T00:41:37.669Z,105.10
2022-12-11T00:44:04.242Z,86.43
2022-12-11T00:46:30.698Z,128.05
2022-12-11T00:48:57.165Z,96.18
2022-12-11T00:51:23.684Z,89.30
2022-12-11T00:53:50.033Z,78.18
2022-12-11T00:56:19.205Z,82.05
2022-12-11T00:58:47.866Z,77.80
2022-12-11T01:01:20.698Z,95.65
2022-12-11T01:03:48.115Z,88.75
2022-12-11T01:06:18.702Z,74.68
2022-12-11T01:08:45.690Z,77.70
2022-12-11T01:11:15.611Z,78.88
2022-12-11T01:13:42.378Z,75.43
2022-12-11T01:16:12.102Z,70.32
2022-12-11T01:18:38.554Z,73.88
2022-12-11T01:21:07.194Z,79.32
2022-12-11T01:23:33.606Z,91.18
2022-12-11T01:26:11.582Z,81.65
2022-12-11T01:28:38.415Z,97.72
2022-12-11T01:31:23.041Z,77.07
2022-12-11T01:33:49.624Z,77.05
2022-12-11T01:36:19.162Z,69.32
2022-12-11T01:38:46.972Z,72.05
2022-12-11T01:41:13.563Z,62.65
2022-12-11T01:43:56.762Z,72.43
2022-12-11T01:46:23.940Z,69.55
2022-12-11T01:48:50.564Z,62.97
2022-12-11T01:51:17.575Z,62.80
2022-12-11T01:53:50.216Z,61.70
2022-12-11T01:56:17.652Z,62.83
2022-12-11T01:58:52.300Z,64.05
2022-12-11T02:01:30.781Z,67.20
2022-12-11T02:03:57.261Z,66.18
2022-12-11T02:06:33.842Z,64.05
2022-12-11T02:09:00.868Z,66.97
2022-12-11T02:11:43.551Z,60.08
2022-12-11T02:14:20.576Z,68.25
2022-12-11T02:17:04.260Z,62.55
2022-12-11T02:22:13.604Z,62.42
2022-12-11T02:24:49.208Z,68.72
2022-12-11T02:27:46.081Z,66.35
2022-12-11T02:30:15.318Z,71.60
2022-12-11T02:32:55.531Z,64.03
2022-12-11T02:35:31.728Z,65.53
2022-12-11T02:38:04.447Z,73.80
2022-12-11T02:40:34.872Z,72.17
2022-12-11T02:43:04.347Z,77.90
2022-12-11T02:45:32.403Z,71.53
2022-12-11T02:48:02.845Z,70.63
2022-12-11T02:50:30.451Z,68.10
2022-12-11T02:53:00.622Z,71.57
2022-12-11T02:55:29.809Z,74.47
2022-12-11T02:58:07.981Z,65.35
2022-12-11T03:00:34.597Z,71.03
2022-12-11T03:03:02.023Z,72.28
2022-12-11T03:05:29.620Z,71.85
2022-12-11T03:07:56.318Z,74.60
2022-12-11T03:10:22.991Z,73.50
2022-12-11T03:12:53.900Z,66.57
2022-12-11T03:15:23.177Z,67.65
2022-12-11T03:18:07.949Z,75.05
2022-12-11T03:20:47.504Z,70.47
2022-12-11T03:23:40.060Z,68.35
2022-12-11T03:26:11.209Z,71.00
2022-12-11T03:28:43.588Z,76.50
2022-12-11T03:31:14.759Z,73.67
2022-12-11T03:33:45.551Z,79.63
2022-12-11T03:36:22.023Z,74.43
2022-12-11T03:39:13.342Z,69.03
2022-12-11T03:41:41.727Z,73.32
2022-12-11T03:44:09.050Z,68.53
2022-12-11T03:46:39.846Z,69.57
2022-12-11T03:49:15.352Z,72.03
2022-12-11T03:51:43.935Z,70.63
2022-12-11T03:54:11.373Z,69.65
2022-12-11T03:56:39.653Z,75.20
2022-12-11T03:59:06.053Z,67.32
2022-12-11T04:01:32.779Z,66.07
2022-12-11T04:03:59.289Z,75.20
2022-12-11T04:06:25.724Z,70.82
2022-12-11T04:08:52.150Z,73.50
2022-12-11T04:11:36.836Z,65.93
2022-12-11T04:14:22.054Z,69.18
2022-12-11T04:16:48.469Z,65.80
2022-12-11T04:19:34.076Z,69.47
2022-12-11T04:22:15.527Z,60.60
2022-12-11T04:24:41.956Z,56.28
2022-12-11T04:27:08.322Z,63.80
2022-12-11T04:29:34.714Z,54.75
2022-12-11T04:32:01.255Z,55.35
2022-12-11T04:34:27.631Z,55.33
2022-12-11T04:36:54.157Z,51.00
2022-12-11T04:39:20.546Z,49.75
2022-12-11T04:41:47.162Z,49.28
2022-12-11T04:44:13.644Z,54.70
2022-12-11T04:46:40.128Z,49.80
2022-12-11T04:49:06.632Z,52.28
2022-12-11T04:51:33.085Z,55.33
2022-12-11T04:53:59.789Z,55.30
2022-12-11T04:56:26.251Z,53.67
2022-12-11T04:58:52.715Z,50.05
2022-12-11T05:01:22.045Z,46.05
2022-12-11T05:03:49.076Z,49.65
2022-12-11T05:06:16.179Z,54.58
2022-12-11T05:08:43.365Z,55.88
2022-12-11T05:11:12.368Z,48.15
2022-12-11T05:13:39.192Z,47.08
2022-12-11T05:16:08.331Z,45.83
2022-12-11T05:18:35.558Z,48.50
2022-12-11T05:21:05.365Z,54.28
2022-12-11T05:23:31.807Z,51.05
2022-12-11T05:26:01.816Z,52.65
2022-12-11T05:28:31.577Z,45.03
2022-12-11T05:31:00.343Z,49.42
2022-12-11T05:33:27.066Z,54.15
2022-12-11T05:35:53.675Z,47.42
2022-12-11T05:38:20.311Z,50.30
2022-12-11T05:40:56.820Z,49.28
2022-12-11T05:43:23.379Z,54.30
2022-12-11T05:45:49.756Z,45.72
2022-12-11T05:48:16.462Z,51.08
2022-12-11T05:50:42.867Z,52.42
2022-12-11T05:53:09.464Z,52.90
2022-12-11T05:55:36.059Z,47.88
2022-12-11T05:58:02.628Z,48.17
2022-12-11T06:00:34.375Z,48.67
2022-12-11T06:05:28.832Z,47.67
2022-12-11T06:07:55.358Z,47.95
2022-12-11T06:10:21.771Z,51.35
2022-12-11T06:12:48.124Z,50.30
2022-12-11T06:15:14.552Z,51.28
2022-12-11T06:17:41.687Z,51.85
2022-12-11T06:20:08.517Z,55.70
2022-12-11T06:22:34.935Z,50.22
2022-12-11T06:25:01.778Z,50.83
2022-12-11T06:27:28.198Z,56.90
2022-12-11T06:29:54.579Z,52.22
2022-12-11T06:32:21.691Z,54.15
2022-12-11T06:34:48.280Z,51.17
2022-12-11T06:37:14.745Z,51.28
2022-12-11T06:39:41.190Z,55.72
2022-12-11T06:42:07.538Z,49.83
2022-12-11T06:44:34.363Z,53.58
2022-12-11T06:47:00.728Z,47.03
2022-12-11T06:49:27.378Z,51.00
2022-12-11T06:51:53.726Z,50.38
2022-12-11T06:54:20.368Z,46.38
2022-12-11T06:56:47.227Z,51.45
2022-12-11T06:59:13.618Z,48.25
2022-12-11T07:01:40.856Z,47.95
2022-12-11T07:04:09.051Z,51.67
2022-12-11T07:06:35.517Z,48.00
2022-12-11T07:09:05.343Z,50.63
2022-12-11T07:11:31.794Z,45.33
2022-12-11T07:14:01.412Z,47.60
2022-12-11T07:16:27.945Z,45.47
2022-12-11T07:18:54.366Z,47.55
2022-12-11T07:21:21.132Z,47.72
2022-12-11T07:23:48.655Z,48.63
2022-12-11T07:26:18.539Z,52.38
2022-12-11T07:28:45.758Z,47.83
2022-12-11T07:31:15.302Z,47.03
2022-12-11T07:33:42.567Z,46.67
2022-12-11T07:36:11.658Z,44.17
2022-12-11T07:38:38.079Z,44.97
2022-12-11T07:41:06.793Z,45.67
2022-12-11T07:43:34.278Z,44.63
2022-12-11T07:46:06.015Z,44.95
2022-12-11T07:48:35.528Z,44.30
2022-12-11T07:51:31.523Z,45.30
2022-12-11T07:54:01.325Z,44.25
2022-12-11T07:56:29.539Z,45.05
2022-12-11T07:58:56.051Z,50.63
2022-12-11T08:01:25.992Z,47.67
2022-12-11T08:03:53.249Z,45.15
2022-12-11T08:06:24.149Z,45.78
2022-12-11T08:08:50.752Z,48.13
2022-12-11T08:11:17.158Z,41.85
2022-12-11T08:13:43.836Z,44.38
2022-12-11T08:16:13.717Z,44.67
2022-12-11T08:18:41.516Z,42.05
2022-12-11T08:21:10.570Z,43.92
2022-12-11T08:23:36.971Z,59.95
2022-12-11T08:26:05.605Z,42.05
2022-12-11T08:28:32.318Z,40.50
2022-12-11T08:30:59.569Z,39.67
2022-12-11T08:33:26.664Z,65.82
2022-12-11T08:35:53.335Z,59.35
2022-12-11T08:38:25.013Z,48.55
2022-12-11T08:40:51.897Z,44.42
2022-12-11T08:43:18.249Z,37.47
2022-12-11T08:45:46.463Z,39.63
2022-12-11T08:48:13.035Z,42.70
2022-12-11T08:50:39.444Z,40.83
2022-12-11T08:53:06.103Z,48.28
2022-12-11T08:55:33.292Z,40.17
2022-12-11T08:57:59.981Z,36.67
2022-12-11T09:00:27.513Z,67.43
2022-12-11T09:02:53.900Z,63.13
2022-12-11T09:05:20.364Z,44.88
2022-12-11T09:07:46.800Z,45.65
2022-12-11T09:10:13.239Z,38.55
2022-12-11T09:12:40.472Z,33.88
2022-12-11T09:15:07.406Z,34.60
2022-12-11T09:17:34.644Z,31.98
2022-12-11T09:20:01.492Z,32.20
2022-12-11T09:22:28.224Z,34.40
2022-12-11T09:24:54.616Z,32.80
2022-12-11T09:27:21.246Z,30.70
2022-12-11T09:29:47.631Z,30.45
2022-12-11T09:32:14.214Z,31.98
2022-12-11T09:34:40.607Z,29.35
2022-12-11T09:37:07.335Z,32.88
2022-12-11T09:39:33.739Z,28.80
2022-12-11T09:42:24.517Z,29.05
2022-12-11T09:44:54.783Z,30.52
2022-12-11T09:47:24.929Z,28.30
2022-12-11T09:50:00.812Z,26.30
2022-12-11T09:52:57.620Z,28.17
2022-12-11T09:55:29.620Z,26.98
2022-12-11T09:58:15.024Z,28.85
2022-12-11T10:01:07.250Z,24.50
2022-12-11T10:04:03.996Z,25.05
2022-12-11T10:06:37.312Z,24.73
2022-12-11T10:12:13.445Z,24.77
2022-12-11T10:15:05.730Z,26.02
2022-12-11T10:17:34.975Z,24.77
2022-12-11T10:20:26.839Z,22.45
2022-12-11T10:22:56.708Z,23.17
2022-12-11T10:25:29.059Z,19.58
2022-12-11T10:27:56.122Z,24.02
2022-12-11T10:30:34.716Z,22.20
2022-12-11T10:33:19.581Z,25.08
2022-12-11T10:35:53.051Z,21.98
2022-12-11T10:38:33.213Z,24.63
2022-12-11T10:41:09.553Z,28.60
2022-12-11T10:43:40.056Z,22.90
2022-12-11T10:46:13.821Z,26.13
2022-12-11T10:48:50.143Z,23.67
2022-12-11T10:51:17.409Z,25.80
2022-12-11T10:53:48.980Z,33.92
2022-12-11T10:56:15.380Z,30.75
2022-12-11T10:58:50.086Z,27.70
2022-12-11T11:01:21.287Z,26.65
2022-12-11T11:04:06.427Z,28.95
2022-12-11T11:06:33.536Z,25.38
2022-12-11T11:09:01.323Z,26.00
2022-12-11T11:11:34.858Z,25.30
2022-12-11T11:14:14.032Z,27.17
2022-12-11T11:16:42.655Z,24.55
2022-12-11T11:19:18.714Z,31.10
2022-12-11T11:21:51.251Z,26.40
2022-12-11T11:24:45.089Z,23.48
2022-12-11T11:27:22.599Z,28.77
2022-12-11T11:29:54.386Z,26.50
2022-12-11T11:32:28.183Z,29.33
2022-12-11T11:35:11.531Z,31.15
2022-12-11T11:37:44.261Z,25.63
2022-12-11T11:40:21.093Z,25.25
2022-12-11T11:43:16.189Z,27.90
2022-12-11T11:45:56.410Z,26.95
2022-12-11T11:48:49.946Z,27.90
2022-12-11T11:51:26.691Z,27.33
2022-12-11T11:53:57.850Z,29.13
2022-12-11T11:56:34.942Z,27.15
2022-12-11T11:59:05.953Z,26.30
2022-12-11T12:01:32.813Z,26.67
2022-12-11T12:04:01.269Z,29.52
2022-12-11T12:06:30.542Z,27.17
2022-12-11T12:09:12.957Z,27.15
2022-12-11T12:11:51.301Z,28.90
2022-12-11T12:14:52.644Z,23.52
2022-12-11T12:18:16.913Z,25.92
2022-12-11T12:21:10.646Z,25.83
2022-12-11T12:24:01.302Z,25.55
2022-12-11T12:26:36.726Z,24.48
2022-12-11T12:29:09.363Z,23.35
2022-12-11T12:31:54.120Z,19.50
2022-12-11T12:34:26.347Z,21.48
2022-12-11T12:37:13.130Z,23.65
2022-12-11T12:40:01.758Z,23.80
2022-12-11T12:42:54.889Z,23.65
2022-12-11T12:45:26.370Z,23.08
2022-12-11T12:47:53.675Z,22.67
2022-12-11T12:50:23.696Z,22.98
2022-12-11T12:52:52.977Z,23.95
2022-12-11T12:55:24.101Z,26.17
2022-12-11T12:57:57.488Z,24.33
2022-12-11T13:02:55.952Z,28.15
2022-12-11T13:05:29.292Z,27.30
2022-12-11T13:10:38.782Z,27.67
2022-12-11T13:13:25.392Z,28.88
2022-12-11T13:15:51.815Z,26.45
2022-12-11T13:18:39.199Z,31.58
2022-12-11T13:21:29.421Z,28.80
2022-12-11T13:24:12.659Z,30.60
2022-12-11T13:26:40.172Z,28.25
2022-12-11T13:29:06.573Z,31.58
2022-12-11T13:31:38.180Z,24.13
2022-12-11T13:34:16.095Z,25.23
2022-12-11T13:36:48.803Z,25.35
2022-12-11T13:39:18.786Z,29.10
2022-12-11T13:41:52.438Z,26.80
2022-12-11T13:44:26.395Z,34.60
2022-12-11T13:46:55.269Z,29.63
2022-12-11T13:49:28.490Z,34.65
2022-12-11T13:51:58.289Z,26.48
2022-12-11T13:54:26.198Z,24.10
2022-12-11T13:56:56.740Z,25.15
2022-12-11T13:59:32.837Z,54.17
2022-12-11T14:02:04.071Z,30.23
2022-12-11T14:04:33.530Z,27.02
2022-12-11T14:07:01.776Z,46.78
2022-12-11T14:09:28.559Z,24.13
2022-12-11T14:11:57.356Z,31.17
2022-12-11T14:14:31.028Z,25.45
2022-12-11T14:16:59.039Z,25.38
2022-12-11T14:19:25.490Z,25.92
2022-12-11T14:21:56.659Z,25.48
2022-12-11T14:24:23.119Z,27.60
2022-12-11T14:26:51.047Z,23.75
2022-12-11T14:29:26.020Z,27.52
2022-12-11T14:31:53.881Z,25.08
2022-12-11T14:34:32.994Z,27.45
2022-12-11T14:37:02.493Z,26.40
2022-12-11T14:39:38.351Z,24.08
2022-12-11T14:42:14.368Z,22.17
2022-12-11T14:44:55.314Z,28.85
2022-12-11T14:47:27.141Z,29.25
2022-12-11T14:50:05.563Z,26.30
2022-12-11T14:52:47.081Z,28.50
2022-12-11T14:55:22.269Z,27.45
2022-12-11T14:57:52.325Z,24.17
2022-12-11T15:00:26.266Z,32.30
2022-12-11T15:03:12.372Z,29.83
2022-12-11T15:05:52.876Z,29.08
2022-12-11T15:08:33.191Z,27.77
2022-12-11T15:11:06.590Z,27.13
2022-12-11T15:16:02.223Z,27.52
2022-12-11T15:18:32.528Z,24.75
2022-12-11T15:21:06.834Z,26.15
2022-12-11T15:23:46.693Z,29.38
2022-12-11T15:26:13.376Z,26.05
2022-12-11T15:28:40.071Z,25.35
2022-12-11T15:31:23.526Z,27.38
2022-12-11T15:33:49.882Z,27.80
2022-12-11T15:36:24.824Z,30.13
2022-12-11T15:38:51.244Z,29.95
2022-12-11T15:41:21.368Z,26.95
2022-12-11T15:43:47.852Z,31.45
2022-12-11T15:46:14.349Z,28.05
2022-12-11T15:48:40.760Z,25.38
2022-12-11T15:51:07.139Z,21.90
2022-12-11T15:53:33.873Z,23.92
2022-12-11T15:56:00.569Z,23.67
2022-12-11T15:58:27.420Z,28.80
2022-12-11T16:00:54.403Z,24.30
2022-12-11T16:03:22.604Z,21.83
2022-12-11T16:05:51.370Z,21.58
2022-12-11T16:08:21.331Z,20.70
2022-12-11T16:10:48.434Z,20.60
2022-12-11T16:13:14.923Z,18.13
2022-12-11T16:15:43.872Z,19.30
2022-12-11T16:18:16.341Z,20.90
2022-12-11T16:20:44.166Z,22.80
2022-12-11T16:23:11.779Z,24.02
2022-12-11T16:25:39.079Z,20.25
2022-12-11T16:28:07.963Z,20.30
2022-12-11T16:30:36.952Z,17.73
2022-12-11T16:33:11.794Z,20.40
2022-12-11T16:35:39.310Z,18.65
2022-12-11T16:38:05.749Z,19.83
2022-12-11T16:40:32.202Z,24.17
2022-12-11T16:42:58.665Z,18.98
2022-12-11T16:45:27.045Z,20.33
2022-12-11T16:47:53.775Z,20.58
2022-12-11T16:50:20.759Z,22.52
2022-12-11T16:52:47.367Z,21.95
2022-12-11T16:55:14.761Z,20.13
2022-12-11T16:57:41.619Z,19.45
2022-12-11T17:00:09.831Z,21.00
2022-12-11T17:02:36.364Z,20.85
2022-12-11T17:05:03.189Z,24.83
2022-12-11T17:07:31.805Z,20.42
2022-12-11T17:09:58.296Z,22.45
2022-12-11T17:12:27.628Z,26.20
2022-12-11T17:14:55.905Z,23.80
2022-12-11T17:17:22.384Z,23.30
2022-12-11T17:19:48.759Z,23.30
2022-12-11T17:22:15.194Z,23.20
2022-12-11T17:24:41.561Z,24.13
2022-12-11T17:27:08.179Z,22.67
2022-12-11T17:29:34.569Z,21.55
2022-12-11T17:32:02.979Z,20.75
2022-12-11T17:34:34.535Z,22.17
2022-12-11T17:37:04.251Z,21.73
2022-12-11T17:39:30.792Z,22.63
2022-12-11T17:41:57.214Z,22.05
2022-12-11T17:44:24.136Z,22.80
2022-12-11T17:46:50.501Z,23.73
2022-12-11T17:49:16.895Z,31.33
2022-12-11T17:51:43.267Z,24.38
2022-12-11T17:54:09.776Z,20.98
2022-12-11T17:56:36.703Z,23.85
2022-12-11T17:59:03.599Z,23.55
2022-12-11T18:01:30.096Z,22.90
2022-12-11T18:03:56.716Z,26.42
2022-12-11T18:06:23.491Z,23.77
2022-12-11T18:08:49.992Z,27.35
2022-12-11T18:11:18.707Z,24.55
2022-12-11T18:13:48.490Z,24.13
2022-12-11T18:16:21.618Z,23.30
2022-12-11T18:18:50.174Z,26.00
2022-12-11T18:21:21.366Z,24.70
2022-12-11T18:23:49.899Z,23.00
2022-12-11T18:26:19.068Z,24.70
2022-12-11T18:28:46.489Z,21.30
2022-12-11T18:31:13.871Z,21.23
2022-12-11T18:33:42.777Z,21.02
2022-12-11T18:36:10.222Z,22.35
2022-12-11T18:38:37.465Z,26.85
2022-12-11T18:41:09.132Z,25.80
2022-12-11T18:43:36.054Z,24.50
2022-12-11T18:46:10.177Z,23.67
2022-12-11T18:48:37.246Z,24.77
2022-12-11T18:51:13.774Z,24.95
2022-12-11T18:53:40.805Z,24.10
2022-12-11T18:56:13.550Z,22.55
2022-12-11T18:58:40.671Z,22.52
2022-12-11T19:01:08.936Z,21.85
2022-12-11T19:03:35.499Z,21.67
2022-12-11T19:06:14.116Z,21.30
2022-12-11T19:08:41.340Z,19.90
2022-12-11T19:11:08.616Z,19.13
2022-12-11T19:13:35.312Z,23.38
2022-12-11T19:16:02.012Z,22.33
2022-12-11T19:18:28.526Z,21.17
2022-12-11T19:21:06.429Z,22.17
2022-12-11T19:23:35.072Z,22.50
2022-12-11T19:26:01.631Z,21.33
2022-12-11T19:28:27.962Z,23.35
2022-12-11T19:30:54.450Z,23.02
2022-12-11T19:33:20.991Z,24.15
2022-12-11T19:35:47.471Z,24.50
2022-12-11T19:38:13.943Z,23.88
2022-12-11T19:40:44.343Z,24.02
2022-12-11T19:43:11.523Z,23.63
2022-12-11T19:45:38.273Z,23.10
2022-12-11T19:48:05.054Z,23.55
2022-12-11T19:50:35.547Z,27.20
2022-12-11T19:53:01.923Z,31.08
2022-12-11T19:55:28.744Z,26.40
2022-12-11T19:57:55.416Z,25.70
2022-12-11T20:00:21.833Z,23.83
2022-12-11T20:02:48.981Z,27.08
2022-12-11T20:05:15.871Z,37.72
2022-12-11T20:07:44.369Z,25.50
2022-12-11T20:10:11.099Z,26.13
2022-12-11T20:12:37.548Z,23.50
2022-12-11T20:15:05.451Z,26.63
2022-12-11T20:17:33.159Z,26.08
2022-12-11T20:19:59.586Z,24.70
2022-12-11T20:22:25.988Z,25.55
2022-12-11T20:24:52.357Z,26.90
2022-12-11T20:27:18.720Z,25.42
2022-12-11T20:29:45.210Z,26.40
2022-12-11T20:32:11.788Z,26.45
2022-12-11T20:34:38.398Z,26.25
2022-12-11T20:37:04.854Z,27.40
2022-12-11T20:39:31.912Z,27.40
2022-12-11T20:41:58.335Z,43.00
2022-12-11T20:44:24.713Z,35.95
2022-12-11T20:46:51.523Z,35.55
2022-12-11T20:49:18.123Z,31.98
2022-12-11T20:51:45.351Z,29.92
2022-12-11T20:54:11.856Z,26.38
2022-12-11T20:56:38.813Z,28.05
2022-12-11T20:59:05.650Z,27.38
2022-12-11T21:01:32.976Z,28.45
2022-12-11T21:03:59.813Z,28.88
2022-12-11T21:06:30.708Z,28.95
2022-12-11T21:09:05.400Z,26.23
2022-12-11T21:11:31.929Z,30.17
2022-12-11T21:13:59.556Z,28.85
2022-12-11T21:16:26.465Z,28.77
2022-12-11T21:18:53.307Z,28.08
2022-12-11T21:21:19.711Z,27.33
2022-12-11T21:23:46.107Z,25.65
2022-12-11T21:26:12.994Z,26.45
2022-12-11T21:28:39.768Z,25.63
2022-12-11T21:31:09.283Z,25.35
2022-12-11T21:33:35.999Z,24.25
2022-12-11T21:36:03.557Z,22.88
2022-12-11T21:38:30.335Z,24.08
2022-12-11T21:40:57.392Z,26.08
2022-12-11T21:43:24.682Z,24.92
2022-12-11T21:46:00.811Z,23.83
2022-12-11T21:48:28.120Z,24.13
2022-12-11T21:50:54.574Z,23.63
2022-12-11T21:53:20.989Z,24.65
2022-12-11T21:55:47.359Z,25.33
2022-12-11T21:58:13.725Z,23.15
2022-12-11T22:00:40.091Z,22.08
2022-12-11T22:03:06.639Z,23.05
2022-12-11T22:05:33.102Z,23.80
2022-12-11T22:07:59.979Z,24.90
2022-12-11T22:10:28.233Z,23.88
2022-12-11T22:12:54.842Z,22.08
2022-12-11T22:15:21.232Z,24.35
2022-12-11T22:17:47.751Z,24.33
2022-12-11T22:20:14.482Z,25.17
2022-12-11T22:22:40.918Z,28.52
2022-12-11T22:25:07.977Z,24.48
2022-12-11T22:27:34.759Z,26.30
2022-12-11T22:30:01.119Z,25.77
2022-12-11T22:32:27.670Z,26.92
2022-12-11T22:34:56.129Z,23.15
2022-12-11T22:37:22.530Z,24.83
2022-12-11T22:39:48.958Z,24.55
2022-12-11T22:42:15.602Z,24.65
2022-12-11T22:44:42.762Z,23.83
2022-12-11T22:47:09.111Z,22.05
2022-12-11T22:49:35.759Z,21.13
2022-12-11T22:52:02.162Z,23.58
2022-12-11T22:54:28.685Z,21.45
2022-12-11T22:56:55.031Z,22.75
2022-12-11T22:59:21.430Z,25.55
2022-12-11T23:01:47.807Z,23.35
2022-12-11T23:04:14.182Z,26.30
2022-12-11T23:06:40.642Z,24.98
2022-12-11T23:09:07.976Z,25.77
2022-12-11T23:11:37.514Z,27.08
2022-12-11T23:14:05.748Z,27.52
2022-12-11T23:16:32.319Z,27.05
2022-12-11T23:18:58.958Z,29.48
2022-12-11T23:21:28.247Z,29.73
2022-12-11T23:23:55.847Z,31.00
2022-12-11T23:26:22.464Z,26.33
2022-12-11T23:28:50.476Z,29.88
2022-12-11T23:31:17.576Z,30.30
2022-12-11T23:33:44.521Z,29.10
2022-12-11T23:36:11.564Z,29.80
2022-12-11T23:38:38.127Z,32.00
2022-12-11T23:41:05.279Z,31.90
2022-12-11T23:43:33.327Z,33.13
2022-12-11T23:45:59.825Z,33.22
2022-12-11T23:48:26.560Z,34.78
2022-12-11T23:50:58.678Z,32.40
2022-12-11T23:53:25.807Z,31.95
2022-12-11T23:55:52.379Z,34.35
2022-12-11T23:58:18.736Z,32.28
